Time;durP1;ratioP1;P1;durP2;ratioP2;P2;SDS_P1;SDS_P2;PMS_P1;PMS_P2;Temp;Humidity;BMP_temperature;BMP_pressure;BME280_temperature;BME280_humidity;BME280_pressure;Samples;Min_cycle;Max_cycle;Signal;HPM_P1;HPM_P2
2021/05/11 00:02:47;;;;;;;5.62;5.00;;;;;;;13.49;57.36;98631.73;2210206;79;23110;-83
2021/05/11 00:06:00;;;;;;;7.25;5.05;;;;;;;13.36;57.61;98622.02;2272671;77;23006;-81
2021/05/11 00:09:13;;;;;;;5.03;4.60;;;;;;;13.24;57.97;98629.34;2257765;77;22899;-82
2021/05/11 00:12:27;;;;;;;8.75;5.42;;;;;;;13.14;58.07;98627.58;2210382;79;22911;-82
2021/05/11 00:15:40;;;;;;;5.25;4.75;;;;;;;13.03;58.25;98625.02;2210396;79;22886;-82
2021/05/11 00:18:54;;;;;;;5.65;4.90;;;;;;;12.95;58.44;98619.42;2272418;77;22581;-82
2021/05/11 00:22:08;;;;;;;8.73;5.72;;;;;;;12.87;58.71;98622.22;2298794;77;23285;-82
2021/05/11 00:25:17;;;;;;;5.60;4.67;;;;;;;12.77;59.14;98623.91;2272812;77;23331;-82
2021/05/11 00:28:33;;;;;;;6.25;4.75;;;;;;;12.69;59.29;98629.31;2210310;79;22890;-82
2021/05/11 00:31:47;;;;;;;5.25;4.80;;;;;;;12.62;59.60;98627.66;2259326;79;21964;-82
2021/05/11 00:35:00;;;;;;;5.67;5.08;;;;;;;12.60;59.74;98627.86;2272754;77;22997;-83
2021/05/11 00:38:13;;;;;;;7.17;5.20;;;;;;;12.61;59.87;98626.84;2210413;79;22905;-83
2021/05/11 00:41:27;;;;;;;6.67;4.95;;;;;;;12.62;60.02;98621.93;2210387;79;22489;-82
2021/05/11 00:44:40;;;;;;;6.62;4.87;;;;;;;12.63;60.51;98621.42;2210416;79;23454;-83
2021/05/11 00:47:55;;;;;;;8.03;4.45;;;;;;;12.67;60.42;98623.45;2210313;79;22418;-82
2021/05/11 00:51:08;;;;;;;5.20;4.53;;;;;;;12.68;60.68;98611.94;2250543;79;22854;-82
2021/05/11 00:54:21;;;;;;;5.28;4.78;;;;;;;12.69;60.84;98614.87;2210435;79;22914;-82
2021/05/11 00:57:31;;;;;;;6.78;4.65;;;;;;;12.64;60.54;98619.11;2272598;77;22867;-82
2021/05/11 01:00:45;;;;;;;6.10;4.53;;;;;;;12.57;60.61;98618.25;2259379;79;22976;-83
2021/05/11 01:03:59;;;;;;;6.25;4.90;;;;;;;12.48;60.68;98620.23;2250541;79;23313;-83
2021/05/11 01:07:13;;;;;;;5.22;4.60;;;;;;;12.39;61.23;98614.32;2210375;79;22918;-83
2021/05/11 01:10:26;;;;;;;5.72;4.60;;;;;;;12.36;61.26;98619.97;2210134;79;22904;-85
2021/05/11 01:13:40;;;;;;;7.42;4.47;;;;;;;12.32;61.51;98617.40;2259534;79;22792;-84
2021/05/11 01:16:55;;;;;;;7.37;4.30;;;;;;;12.33;61.83;98612.45;2210404;79;22513;-82
2021/05/11 01:20:15;;;;;;;4.97;4.35;;;;;;;12.36;61.88;98608.15;2210429;79;22872;-82
2021/05/11 01:48:22;;;;;;;5.12;4.72;;;;;;;12.63;61.76;98580.71;2272813;77;22574;-83
2021/05/11 01:51:50;;;;;;;5.50;5.00;;;;;;;12.60;61.75;98591.59;2210593;79;22919;-84
2021/05/11 01:55:07;;;;;;;6.78;5.00;;;;;;;12.52;62.04;98584.68;2250487;79;22883;-83
2021/05/11 02:22:52;;;;;;;6.28;4.53;;;;;;;12.30;62.40;98569.53;2259385;79;22771;-84
2021/05/11 02:26:05;;;;;;;6.00;5.40;;;;;;;12.17;62.99;98568.97;2210644;79;22548;-84
2021/05/11 02:29:15;;;;;;;7.85;5.58;;;;;;;12.08;62.95;98570.63;2210585;79;23495;-83
2021/05/11 02:32:28;;;;;;;7.85;6.15;;;;;;;11.99;63.19;98567.34;2272702;77;23284;-82
2021/05/11 02:35:41;;;;;;;7.55;5.92;;;;;;;11.90;63.61;98569.80;2298920;77;23039;-82
2021/05/11 02:38:55;;;;;;;6.75;5.62;;;;;;;11.82;63.75;98569.94;2210464;79;22898;-83
2021/05/11 02:42:09;;;;;;;6.45;5.78;;;;;;;11.71;63.75;98566.50;2210280;79;22898;-82
2021/05/11 02:45:23;;;;;;;7.47;5.80;;;;;;;11.59;64.20;98560.44;2209967;79;22888;-83
2021/05/11 02:48:36;;;;;;;5.97;5.22;;;;;;;11.52;64.61;98561.37;2298922;77;22989;-84
2021/05/11 02:51:50;;;;;;;7.72;5.78;;;;;;;11.48;65.13;98566.20;2250555;79;22828;-83
2021/05/11 02:55:04;;;;;;;8.63;5.50;;;;;;;11.46;64.72;98577.88;2250743;79;22904;-85
2021/05/11 02:58:17;;;;;;;6.55;5.85;;;;;;;11.40;64.81;98569.76;2259304;79;22827;-82
2021/05/11 03:01:33;;;;;;;8.15;5.95;;;;;;;11.39;64.89;98569.95;2210485;79;22473;-83
2021/05/11 03:04:47;;;;;;;8.98;5.60;;;;;;;11.37;65.85;98570.64;2210388;79;22872;-82
2021/05/11 03:07:56;;;;;;;7.90;6.42;;;;;;;11.44;65.50;98570.71;2252787;79;22894;-82
2021/05/11 03:11:10;;;;;;;7.85;6.08;;;;;;;11.55;65.72;98568.38;2272643;77;22843;-83
2021/05/11 03:14:19;;;;;;;6.60;5.67;;;;;;;11.70;65.52;98570.91;2210444;79;23360;-82
2021/05/11 03:17:29;;;;;;;7.12;6.10;;;;;;;11.87;65.28;98569.66;2252833;79;22880;-83
2021/05/11 03:20:43;;;;;;;6.30;5.05;;;;;;;12.13;64.78;98570.34;2272657;77;22877;-83
2021/05/11 03:23:54;;;;;;;7.00;6.12;;;;;;;12.49;64.18;98561.45;2190659;79;28269;-83
2021/05/11 03:27:08;;;;;;;4.90;4.47;;;;;;;13.13;63.07;98560.23;2210386;79;22937;-82
2021/05/11 03:30:21;;;;;;;4.75;4.35;;;;;;;13.48;62.41;98555.16;2272737;77;22594;-84
2021/05/11 03:33:31;;;;;;;5.28;4.87;;;;;;;13.91;61.77;98563.45;2210364;79;23341;-83
2021/05/11 03:36:44;;;;;;;6.12;4.55;;;;;;;14.35;59.57;98557.16;2272618;77;22888;-83
2021/05/11 03:39:58;;;;;;;4.83;4.42;;;;;;;14.71;58.44;98540.84;2215956;79;23062;-84
2021/05/11 03:43:14;;;;;;;5.67;4.37;;;;;;;14.98;58.97;98546.80;2210533;79;22941;-84
2021/05/11 03:46:26;;;;;;;4.45;4.05;;;;;;;15.40;57.35;98536.59;2210605;79;22887;-83
2021/05/11 03:49:39;;;;;;;4.78;4.37;;;;;;;15.76;56.56;98538.56;2250538;79;23019;-83
2021/05/11 03:52:53;;;;;;;7.25;4.25;;;;;;;16.14;55.85;98537.87;2210239;79;22479;-83
2021/05/11 03:56:02;;;;;;;4.33;3.92;;;;;;;16.62;55.88;98537.11;2272741;77;23418;-83
2021/05/11 03:59:16;;;;;;;5.40;4.90;;;;;;;17.18;54.33;98539.95;2215879;79;23014;-83
2021/05/11 04:02:30;;;;;;;4.55;4.20;;;;;;;17.61;52.42;98538.88;2295265;76;22971;-83
2021/05/11 04:05:43;;;;;;;4.83;4.15;;;;;;;17.91;51.22;98534.83;2210298;79;22918;-84
2021/05/11 04:09:00;;;;;;;5.25;4.40;;;;;;;18.21;48.83;98536.03;2298552;77;23029;-83
2021/05/11 04:12:29;;;;;;;3.90;3.58;;;;;;;18.58;49.85;98539.17;2272811;77;22862;-83
2021/05/11 04:19:14;;;;;;;3.92;3.62;;;;;;;19.30;46.86;98536.02;2306176;77;23055;-85
2021/05/11 04:22:27;;;;;;;4.28;3.87;;;;;;;19.43;45.44;98529.05;2210822;79;22099;-84
2021/05/11 04:25:39;;;;;;;3.17;2.98;;;;;;;19.90;44.76;98530.05;2250646;79;23015;-83
2021/05/11 04:28:53;;;;;;;4.25;3.60;;;;;;;20.49;45.56;98528.21;2272731;77;22874;-87
2021/05/11 04:32:04;;;;;;;4.37;3.72;;;;;;;20.93;44.75;98524.42;2234001;79;28230;-84
2021/05/11 04:35:17;;;;;;;3.33;3.12;;;;;;;21.85;43.25;98534.03;2259593;79;22939;-83
2021/05/11 04:38:26;;;;;;;3.42;3.12;;;;;;;21.97;42.83;98533.83;2341859;76;23310;-82
2021/05/11 04:41:40;;;;;;;3.15;2.85;;;;;;;21.88;41.62;98529.23;2257895;77;23087;-82
2021/05/11 04:44:51;;;;;;;3.72;3.20;;;;;;;21.63;40.63;98535.98;2298674;77;22865;-83
2021/05/11 04:48:05;;;;;;;5.70;3.65;;;;;;;21.53;41.05;98529.25;2347482;76;22986;-85
2021/05/11 04:51:15;;;;;;;3.33;3.02;;;;;;;21.31;40.34;98523.23;2210527;79;22872;-84
2021/05/11 04:54:28;;;;;;;4.70;3.55;;;;;;;20.88;40.25;98523.58;2250655;79;22871;-83
2021/05/11 04:57:47;;;;;;;4.28;3.55;;;;;;;20.43;41.33;98520.69;2210352;79;22904;-86
2021/05/11 05:01:01;;;;;;;3.80;3.42;;;;;;;20.10;42.04;98523.69;2250644;79;23018;-86
2021/05/11 05:04:16;;;;;;;5.37;4.33;;;;;;;19.93;41.92;98521.58;2188912;79;23066;-86
2021/05/11 05:07:30;;;;;;;5.00;4.03;;;;;;;19.82;42.39;98517.98;2298669;77;23009;-82
2021/05/11 05:10:43;;;;;;;4.37;3.98;;;;;;;19.72;43.15;98526.33;2298481;77;23041;-85
2021/05/11 05:13:59;;;;;;;4.20;3.65;;;;;;;19.59;43.01;98515.53;2250574;79;23007;-84
2021/05/11 05:17:08;;;;;;;4.15;3.75;;;;;;;19.51;43.27;98512.72;2284657;76;38776;-87
2021/05/11 05:20:21;;;;;;;4.00;3.67;;;;;;;19.50;43.83;98507.13;2267374;77;23325;-83
2021/05/11 05:23:36;;;;;;;3.92;3.70;;;;;;;19.45;43.86;98512.88;2258000;77;22631;-86
2021/05/11 05:26:49;;;;;;;6.97;4.17;;;;;;;19.30;44.15;98514.25;2250604;79;23039;-84
2021/05/11 05:30:00;;;;;;;4.75;4.03;;;;;;;19.28;44.65;98508.36;2210448;79;22835;-83
2021/05/11 05:33:14;;;;;;;3.98;3.62;;;;;;;19.31;44.90;98513.73;2250588;79;23324;-84
2021/05/11 05:36:27;;;;;;;3.75;3.15;;;;;;;19.49;45.37;98504.72;2210557;79;23061;-82
2021/05/11 05:39:40;;;;;;;4.17;3.33;;;;;;;19.67;45.23;98506.35;2259480;79;22959;-85
2021/05/11 05:42:52;;;;;;;4.03;3.62;;;;;;;19.81;44.88;98510.27;2272701;77;22737;-85
2021/05/11 05:46:06;;;;;;;4.30;3.90;;;;;;;19.83;44.69;98520.92;2210385;79;22166;-88
2021/05/11 05:49:15;;;;;;;7.47;4.62;;;;;;;19.79;44.63;98517.16;2250514;79;22518;-87
2021/05/11 05:52:38;;;;;;;3.72;3.17;;;;;;;19.70;44.66;98504.00;2298753;77;23078;-88
2021/05/11 05:55:51;;;;;;;4.22;3.83;;;;;;;19.67;44.71;98507.69;2233230;79;28858;-86
2021/05/11 05:59:04;;;;;;;3.92;3.45;;;;;;;19.61;44.48;98502.80;2259502;79;22655;-83
2021/05/11 06:02:17;;;;;;;5.60;3.55;;;;;;;19.57;45.16;98511.80;2210370;79;22878;-86
2021/05/11 06:05:28;;;;;;;5.50;3.65;;;;;;;19.49;44.99;98498.89;2216076;79;22909;-86
2021/05/11 06:08:44;;;;;;;5.22;2.92;;;;;;;19.46;44.97;98501.20;2250487;79;22456;-88
2021/05/11 06:11:58;;;;;;;4.20;3.45;;;;;;;19.50;45.29;98499.16;2233408;79;28110;-86
2021/05/11 06:18:41;;;;;;;3.92;3.52;;;;;;;19.82;45.57;98482.65;2250531;79;22879;-85
2021/05/11 06:21:55;;;;;;;3.83;3.42;;;;;;;19.84;45.89;98476.56;2210280;79;23014;-86
2021/05/11 06:25:09;;;;;;;3.25;2.72;;;;;;;19.95;45.36;98469.55;2293744;77;22801;-86
2021/05/11 06:28:24;;;;;;;6.12;2.70;;;;;;;20.03;45.13;98469.13;2209955;79;22231;-84
2021/05/11 06:31:39;;;;;;;3.55;3.25;;;;;;;20.09;45.05;98472.11;2210357;79;22418;-85
2021/05/11 06:34:54;;;;;;;3.52;3.00;;;;;;;20.05;45.05;98471.81;2259105;79;22931;-86
2021/05/11 06:38:04;;;;;;;5.20;3.67;;;;;;;20.08;44.58;98475.83;2330873;76;27706;-86
2021/05/11 06:41:18;;;;;;;7.08;3.27;;;;;;;20.27;45.09;98472.33;2259397;79;22568;-87
2021/05/11 06:44:39;;;;;;;6.55;3.35;;;;;;;20.22;44.89;98469.11;2272714;77;23328;-86
2021/05/11 06:47:57;;;;;;;4.47;4.08;;;;;;;20.26;45.44;98466.74;2215960;79;23049;-86
2021/05/11 06:54:34;;;;;;;21.20;4.78;;;;;;;20.37;44.87;98471.92;2210315;79;22931;-86
2021/05/11 06:57:48;;;;;;;2.95;2.65;;;;;;;20.38;45.12;98470.06;2347446;76;22991;-86
2021/05/11 07:01:01;;;;;;;8.85;3.17;;;;;;;20.43;45.01;98465.65;2259516;79;22955;-86
2021/05/11 07:04:12;;;;;;;8.48;3.95;;;;;;;20.54;45.33;98476.39;2257878;77;23018;-87
2021/05/11 07:07:26;;;;;;;5.33;3.77;;;;;;;20.59;45.77;98469.81;2210220;79;22522;-86
2021/05/11 07:10:41;;;;;;;7.83;2.98;;;;;;;20.59;45.26;98461.84;2241694;79;23010;-87
2021/05/11 07:13:55;;;;;;;9.38;3.37;;;;;;;20.66;45.09;98471.20;2177707;79;23079;-87
2021/05/11 07:17:11;;;;;;;6.67;3.75;;;;;;;20.65;45.01;98468.27;2250199;79;22865;-87
2021/05/11 07:20:25;;;;;;;6.87;3.20;;;;;;;20.67;45.38;98466.18;2215601;79;22736;-85
2021/05/11 07:23:38;;;;;;;5.53;3.10;;;;;;;20.68;45.92;98463.80;2210297;79;23004;-87
2021/05/11 07:27:10;;;;;;;3.33;2.67;;;;;;;20.81;45.10;98457.78;2215962;79;23029;-87
2021/05/11 07:30:13;;;;;;;2.80;2.70;;;;;;;20.94;45.25;98457.39;2342578;75;23509;-89
2021/05/11 07:33:26;;;;;;;7.35;3.08;;;;;;;21.01;45.06;98457.97;2273799;77;22295;-88
2021/05/11 07:36:39;;;;;;;5.12;2.75;;;;;;;21.14;45.16;98455.43;2241365;79;22819;-86
2021/05/11 07:39:53;;;;;;;3.90;2.27;;;;;;;21.29;44.61;98452.89;2257853;77;23439;-87
2021/05/11 07:43:12;;;;;;;2.85;2.65;;;;;;;21.40;44.69;98462.59;2253166;79;22901;-84
2021/05/11 07:46:50;;;;;;;5.05;2.45;;;;;;;21.50;44.61;98459.19;2248535;79;22151;-88
2021/05/11 08:04:31;;;;;;;4.90;2.50;;;;;;;22.16;43.97;98453.44;2249488;79;23386;-88
2021/05/11 08:15:02;;;;;;;4.40;2.83;;;;;;;22.30;42.69;98448.67;2216059;79;22669;-88
2021/05/11 08:18:19;;;;;;;3.12;2.83;;;;;;;22.33;43.11;98452.70;2272706;77;23288;-88
2021/05/11 08:28:29;;;;;;;3.37;2.62;;;;;;;22.39;43.76;98443.10;2251187;79;22459;-86
2021/05/11 08:31:43;;;;;;;4.92;2.72;;;;;;;22.49;43.65;98441.53;2217781;79;23049;-84
2021/05/11 08:34:58;;;;;;;5.22;2.35;;;;;;;22.59;43.88;98445.05;2295121;77;23002;-88
2021/05/11 08:38:11;;;;;;;4.03;2.77;;;;;;;22.68;43.83;98448.80;2215979;79;22867;-87
2021/05/11 08:41:25;;;;;;;8.80;2.72;;;;;;;22.81;43.89;98444.00;2259480;79;22808;-86
2021/05/11 08:44:36;;;;;;;5.67;3.15;;;;;;;22.87;43.34;98445.12;2279080;77;23117;-86
2021/05/11 08:47:49;;;;;;;4.58;2.50;;;;;;;22.89;42.68;98439.51;2210389;79;23031;-86
2021/05/11 08:51:05;;;;;;;3.08;2.20;;;;;;;22.91;42.90;98439.50;2250451;79;24203;-89
2021/05/11 09:05:22;;;;;;;13.38;3.00;;;;;;;23.12;41.54;98437.63;2295170;76;22424;-86
2021/05/11 09:08:44;;;;;;;6.83;2.27;;;;;;;23.15;41.05;98437.65;2259334;79;22433;-85
2021/05/11 09:26:03;;;;;;;3.35;2.10;;;;;;;23.43;40.51;98444.30;2298695;77;22639;-84
2021/05/11 09:29:15;;;;;;;2.15;2.05;;;;;;;23.46;39.65;98435.73;2210339;79;22351;-84
2021/05/11 09:32:37;;;;;;;3.02;1.85;;;;;;;23.44;39.54;98429.34;2272760;77;22963;-85
2021/05/11 09:56:56;;;;;;;3.85;3.55;;;;;;;24.00;40.13;98425.20;2259470;79;22923;-86
2021/05/11 10:01:04;;;;;;;12.60;2.83;;;;;;;24.09;40.24;98419.55;2347516;76;22431;-84
2021/05/11 10:32:20;;;;;;;4.37;2.10;;;;;;;24.78;37.67;98402.30;2272728;77;23050;-83
2021/05/11 10:39:36;;;;;;;2.45;1.80;;;;;;;25.00;38.32;98391.97;2250529;79;22965;-83
2021/05/11 10:43:42;;;;;;;5.95;1.98;;;;;;;25.07;37.38;98395.16;2252903;79;23348;-84
2021/05/11 10:49:34;;;;;;;7.12;2.30;;;;;;;25.27;37.91;98395.50;2250663;79;22595;-84
2021/05/11 10:52:47;;;;;;;3.60;2.45;;;;;;;25.35;37.67;98384.72;2272693;77;23003;-86
2021/05/11 10:56:03;;;;;;;4.12;2.20;;;;;;;25.43;37.31;98390.25;2210011;79;22890;-84
2021/05/11 10:59:24;;;;;;;2.35;1.98;;;;;;;25.56;37.43;98381.27;2210196;79;23365;-84
2021/05/11 11:02:44;;;;;;;5.87;1.80;;;;;;;25.66;37.12;98379.27;2259420;79;22266;-84
2021/05/11 11:05:57;;;;;;;4.03;2.22;;;;;;;25.74;36.78;98382.70;2251271;79;23008;-84
2021/05/11 11:09:10;;;;;;;1.75;1.57;;;;;;;25.85;36.84;98379.89;2250615;79;23275;-84
2021/05/11 11:12:24;;;;;;;3.25;2.35;;;;;;;25.93;35.82;98380.59;2351442;76;22552;-85
2021/05/11 11:15:38;;;;;;;6.45;1.98;;;;;;;26.00;36.41;98368.98;2259751;79;21969;-81
2021/05/11 11:18:51;;;;;;;4.70;1.92;;;;;;;26.07;35.82;98372.91;2296566;77;23009;-89
2021/05/11 11:25:47;;;;;;;4.42;1.85;;;;;;;26.21;35.24;98359.56;2250631;79;23034;-86
2021/05/11 11:29:01;;;;;;;8.30;3.12;;;;;;;26.20;34.80;98370.04;2210611;79;23575;-87
2021/05/11 11:32:10;;;;;;;12.00;2.47;;;;;;;26.23;35.40;98361.40;2215852;79;22264;-88
2021/05/11 11:35:24;;;;;;;3.62;2.10;;;;;;;26.28;35.33;98361.89;2250397;79;22406;-87
2021/05/11 11:38:33;;;;;;;3.40;1.62;;;;;;;26.34;35.42;98358.05;2258058;77;23036;-87
2021/05/11 11:41:47;;;;;;;4.37;2.42;;;;;;;26.39;35.64;98353.17;2259154;79;23428;-86
2021/05/11 11:45:01;;;;;;;4.80;2.30;;;;;;;26.44;34.94;98353.11;2210365;79;22862;-86
2021/05/11 11:48:19;;;;;;;5.85;2.87;;;;;;;26.48;34.65;98352.22;2250560;79;23450;-88
2021/05/11 11:51:26;;;;;;;3.72;2.58;;;;;;;26.49;35.19;98349.78;2196530;79;28688;-87
2021/05/11 11:54:43;;;;;;;4.22;2.12;;;;;;;26.71;34.91;98344.37;2298864;77;22535;-87
2021/05/11 11:57:56;;;;;;;5.17;2.47;;;;;;;26.74;35.26;98346.45;2216075;79;23013;-88
2021/05/11 12:01:06;;;;;;;5.05;2.40;;;;;;;26.74;35.13;98347.80;2252893;79;22449;-88
2021/05/11 12:04:20;;;;;;;3.52;2.15;;;;;;;26.79;35.78;98340.98;2210205;79;22567;-89
2021/05/11 12:07:33;;;;;;;4.15;2.30;;;;;;;26.82;35.29;98338.52;2210469;79;22847;-88
2021/05/11 12:10:47;;;;;;;4.05;2.47;;;;;;;26.85;35.46;98337.13;2210547;79;22843;-88
2021/05/11 12:13:57;;;;;;;5.87;2.60;;;;;;;26.87;35.24;98328.23;2250718;79;23438;-93
2021/05/11 12:17:13;;;;;;;4.50;2.30;;;;;;;26.94;35.31;98324.63;2210408;79;22865;-87
2021/05/11 12:20:27;;;;;;;10.18;2.25;;;;;;;26.99;35.20;98316.48;2210538;79;22236;-87
2021/05/11 12:23:38;;;;;;;4.28;2.25;;;;;;;27.00;34.63;98318.63;2210374;79;22533;-87
2021/05/11 12:26:52;;;;;;;3.15;2.30;;;;;;;27.00;34.54;98312.70;2216039;79;22645;-88
2021/05/11 12:30:08;;;;;;;4.78;2.60;;;;;;;26.97;34.82;98310.59;2210056;79;23025;-86
2021/05/11 12:33:18;;;;;;;3.47;2.25;;;;;;;26.96;34.57;98306.31;2215668;79;22921;-86
2021/05/11 12:36:28;;;;;;;3.85;2.55;;;;;;;26.96;34.15;98309.55;2250250;78;22011;-85
2021/05/11 12:39:51;;;;;;;3.40;2.40;;;;;;;26.95;34.30;98303.38;2191151;79;28196;-86
2021/05/11 12:43:02;;;;;;;2.83;2.10;;;;;;;27.10;34.84;98303.69;2210383;79;23984;-84
2021/05/11 12:46:11;;;;;;;3.62;2.00;;;;;;;27.16;34.70;98303.85;2259302;79;23169;-83
2021/05/11 12:49:24;;;;;;;4.95;2.52;;;;;;;27.20;34.84;98301.60;2259376;79;22756;-84
2021/05/11 12:52:34;;;;;;;3.12;1.92;;;;;;;27.24;34.78;98304.48;2250225;79;22992;-84
2021/05/11 12:56:00;;;;;;;2.45;2.35;;;;;;;27.26;34.87;98295.59;2252594;79;22992;-84
2021/05/11 12:59:10;;;;;;;3.47;1.65;;;;;;;27.27;34.77;98297.73;2253360;79;21707;-85
2021/05/11 13:02:32;;;;;;;3.92;3.02;;;;;;;27.26;33.91;98284.05;2250131;79;22924;-84
2021/05/11 13:13:40;;;;;;;4.12;2.45;;;;;;;27.32;33.16;98276.91;2210335;79;23482;-83
2021/05/11 13:16:29;;;;;;;3.72;2.20;;;;;;;27.30;33.14;98262.98;2230789;79;38873;-88
2021/05/11 13:20:01;;;;;;;3.40;1.55;;;;;;;27.38;32.29;98270.90;2216041;79;23008;-85
2021/05/11 13:23:10;;;;;;;4.42;2.05;;;;;;;27.37;32.72;98263.94;2272792;77;22621;-82
2021/05/11 13:26:24;;;;;;;3.25;1.50;;;;;;;27.36;32.58;98263.69;2272660;77;22873;-82
2021/05/11 13:29:49;;;;;;;3.37;1.77;;;;;;;27.31;32.27;98255.72;2272742;77;23025;-87
2021/05/11 13:33:03;;;;;;;2.27;2.12;;;;;;;27.29;32.31;98248.51;2210370;79;23506;-89
2021/05/11 13:36:13;;;;;;;2.42;1.75;;;;;;;27.28;32.26;98242.89;2216847;79;23014;-88
2021/05/11 13:39:27;;;;;;;2.20;2.10;;;;;;;27.27;32.32;98238.06;2210474;79;23045;-85
2021/05/11 13:42:40;;;;;;;6.45;2.00;;;;;;;27.29;32.50;98239.10;2259452;79;22946;-85
2021/05/11 13:45:55;;;;;;;2.87;1.52;;;;;;;27.28;31.27;98230.80;2250436;79;22871;-85
2021/05/11 13:49:08;;;;;;;7.05;2.47;;;;;;;27.28;31.23;98228.11;2298720;77;22840;-87
2021/05/11 13:52:18;;;;;;;3.58;2.35;;;;;;;27.29;32.35;98228.35;2250700;79;23043;-85
2021/05/11 13:55:38;;;;;;;3.42;1.80;;;;;;;27.27;31.77;98218.45;2272732;77;22910;-84
2021/05/11 14:13:11;;;;;;;3.17;1.80;;;;;;;27.23;31.55;98202.13;2210277;79;23514;-85
2021/05/11 14:16:24;;;;;;;4.10;2.20;;;;;;;27.21;31.42;98196.25;2210255;79;23449;-88
2021/05/11 14:19:38;;;;;;;3.42;1.70;;;;;;;27.18;31.08;98195.52;2215892;79;22629;-86
2021/05/11 14:22:57;;;;;;;2.45;2.20;;;;;;;27.16;31.18;98185.63;2250306;79;22585;-87
2021/05/11 14:29:54;;;;;;;5.42;1.65;;;;;;;27.15;31.27;98187.49;2215579;79;23473;-85
2021/05/11 14:33:07;;;;;;;3.67;1.55;;;;;;;27.16;30.95;98178.91;2252954;79;22844;-83
2021/05/11 14:36:22;;;;;;;3.67;2.12;;;;;;;27.14;30.81;98184.56;2258199;79;22798;-84
2021/05/11 14:39:34;;;;;;;2.00;1.42;;;;;;;27.06;30.49;98182.58;2210405;79;22850;-83
2021/05/11 14:42:44;;;;;;;3.72;2.20;;;;;;;27.03;30.28;98179.16;2298552;77;23000;-84
2021/05/11 14:46:00;;;;;;;11.33;2.47;;;;;;;27.00;30.30;98170.88;2210513;79;23022;-84
2021/05/11 14:49:18;;;;;;;5.33;1.90;;;;;;;26.99;30.37;98172.77;2252923;79;22815;-84
2021/05/11 14:52:32;;;;;;;5.80;1.77;;;;;;;26.96;30.65;98163.16;2215972;79;23358;-83
2021/05/11 14:55:47;;;;;;;2.75;1.85;;;;;;;26.93;30.17;98161.33;2210259;79;22905;-84
2021/05/11 14:59:00;;;;;;;6.90;1.82;;;;;;;26.96;31.39;98153.20;2216077;79;22379;-90
2021/05/11 15:02:13;;;;;;;9.68;1.77;;;;;;;26.97;30.90;98140.57;2298926;77;22957;-85
2021/05/11 15:05:27;;;;;;;1.92;1.57;;;;;;;26.95;30.51;98148.93;2296598;77;22928;-85
2021/05/11 15:08:40;;;;;;;3.85;1.95;;;;;;;26.93;30.64;98145.76;2273350;77;23012;-85
2021/05/11 15:11:54;;;;;;;3.25;1.85;;;;;;;26.89;30.45;98140.75;2216622;79;22045;-86
2021/05/11 15:15:04;;;;;;;5.37;2.00;;;;;;;26.88;31.61;98138.61;2211064;79;22657;-85
2021/05/11 15:18:17;;;;;;;5.58;1.90;;;;;;;26.89;31.39;98133.48;2273127;77;23313;-86
2021/05/11 15:21:31;;;;;;;4.92;2.33;;;;;;;26.86;31.10;98133.27;2305783;77;22873;-85
2021/05/11 15:24:42;;;;;;;2.67;1.32;;;;;;;26.79;30.06;98133.70;2250765;79;22678;-87
2021/05/11 15:27:57;;;;;;;3.22;1.72;;;;;;;26.79;30.39;98128.84;2210381;79;23000;-86
2021/05/11 15:31:07;;;;;;;3.00;1.92;;;;;;;26.78;30.25;98128.59;2259361;79;22786;-85
2021/05/11 15:34:22;;;;;;;1.42;1.32;;;;;;;26.78;29.96;98136.10;2272748;77;23021;-87
2021/05/11 15:37:39;;;;;;;4.92;1.55;;;;;;;26.78;30.90;98128.59;2209664;79;24123;-85
2021/05/11 15:40:52;;;;;;;2.10;1.82;;;;;;;26.76;31.34;98112.00;2298914;77;23254;-86
2021/05/11 15:44:04;;;;;;;2.22;2.00;;;;;;;26.72;32.01;98116.39;2272709;77;23026;-86
2021/05/11 15:47:18;;;;;;;4.80;1.92;;;;;;;26.74;32.39;98115.53;2210427;79;23311;-86
2021/05/11 15:50:48;;;;;;;3.00;2.22;;;;;;;26.70;32.75;98118.03;2253214;79;22915;-85
2021/05/11 15:54:01;;;;;;;2.67;2.10;;;;;;;26.66;32.64;98113.00;2258219;77;22889;-85
2021/05/11 15:57:11;;;;;;;2.37;2.27;;;;;;;26.62;32.84;98111.47;2217409;78;22218;-84
2021/05/11 16:00:27;;;;;;;3.47;1.87;;;;;;;26.57;32.83;98110.76;2210359;79;22898;-89
2021/05/11 16:03:41;;;;;;;2.65;2.00;;;;;;;26.54;33.21;98103.31;2272971;77;23376;-86
2021/05/11 16:06:54;;;;;;;4.00;2.05;;;;;;;26.51;33.43;98101.20;2210505;79;22980;-86
2021/05/11 16:10:07;;;;;;;3.80;1.75;;;;;;;26.45;33.47;98097.84;2210588;79;23091;-89
2021/05/11 16:13:25;;;;;;;3.55;1.85;;;;;;;26.39;33.06;98094.99;2215873;79;23012;-89
2021/05/11 16:16:37;;;;;;;2.90;2.02;;;;;;;26.36;33.36;98094.22;2210610;79;23038;-89
2021/05/11 16:19:48;;;;;;;2.50;2.30;;;;;;;26.33;33.97;98098.30;2239888;79;27624;-89
2021/05/11 16:23:03;;;;;;;4.28;2.10;;;;;;;26.39;34.03;98092.30;2347266;76;22967;-88
2021/05/11 16:26:16;;;;;;;1.98;1.87;;;;;;;26.34;34.20;98089.70;2209668;79;23574;-88
2021/05/11 16:29:28;;;;;;;4.37;2.10;;;;;;;26.26;34.14;98092.53;2273239;77;23040;-89
2021/05/11 16:32:41;;;;;;;1.72;1.62;;;;;;;26.20;34.50;98095.59;2295512;76;23010;-90
2021/05/11 16:35:51;;;;;;;3.52;2.00;;;;;;;26.11;33.92;98086.63;2298461;76;22951;-88
2021/05/11 16:39:01;;;;;;;2.50;2.30;;;;;;;26.04;34.58;98089.14;2215912;79;22172;-88
2021/05/11 16:42:16;;;;;;;5.33;2.20;;;;;;;25.97;34.10;98087.41;2210485;79;23365;-87
2021/05/11 16:45:32;;;;;;;2.22;1.95;;;;;;;25.92;33.82;98088.83;2250772;79;23016;-88
2021/05/11 16:48:41;;;;;;;7.33;2.95;;;;;;;25.87;34.01;98088.91;2273070;77;23059;-89
2021/05/11 16:51:52;;;;;;;3.00;2.80;;;;;;;25.80;34.26;98088.51;2210332;79;22866;-87
2021/05/11 16:55:06;;;;;;;3.80;2.55;;;;;;;25.74;34.75;98093.14;2272941;77;22821;-88
2021/05/11 16:58:24;;;;;;;4.62;2.40;;;;;;;25.67;34.58;98099.39;2210549;79;23057;-89
2021/05/11 17:01:34;;;;;;;1.92;1.82;;;;;;;25.61;34.66;98094.42;2204743;79;22877;-89
2021/05/11 17:04:48;;;;;;;6.00;1.98;;;;;;;25.55;34.72;98094.23;2203015;79;23338;-89
2021/05/11 17:07:58;;;;;;;3.92;2.50;;;;;;;25.45;34.08;98087.95;2189172;80;23335;-87
2021/05/11 17:11:11;;;;;;;3.12;2.30;;;;;;;25.41;34.43;98082.11;2210502;79;22891;-90
2021/05/11 17:14:21;;;;;;;3.05;1.87;;;;;;;25.34;34.30;98087.85;2185432;79;23073;-87
2021/05/11 17:17:30;;;;;;;2.85;1.80;;;;;;;25.27;33.91;98091.98;2210511;79;23041;-88
2021/05/11 17:20:44;;;;;;;3.52;1.47;;;;;;;25.16;33.70;98082.75;2234667;79;23097;-88
2021/05/11 17:23:57;;;;;;;4.47;2.15;;;;;;;25.10;33.49;98083.89;2223322;77;22889;-89
2021/05/11 17:27:11;;;;;;;4.40;2.02;;;;;;;25.03;33.19;98083.45;2194447;80;22886;-87
2021/05/11 17:30:21;;;;;;;1.87;1.75;;;;;;;24.95;33.47;98081.37;2316183;76;22851;-86
2021/05/11 17:33:34;;;;;;;3.10;1.60;;;;;;;24.87;33.38;98078.83;2205464;79;23031;-88
2021/05/11 17:36:43;;;;;;;4.40;1.98;;;;;;;24.78;33.33;98083.23;2194687;79;22914;-87
2021/05/11 17:39:57;;;;;;;3.05;2.20;;;;;;;24.68;33.24;98086.00;2187833;79;22915;-87
2021/05/11 17:43:46;;;;;;;1.77;1.67;;;;;;;24.59;33.11;98087.17;1876068;89;22326;-85
2021/05/11 17:46:47;;;;;;;3.15;1.65;;;;;;;24.47;33.60;98092.14;1875476;91;21165;-86
2021/05/11 17:49:49;;;;;;;3.83;1.92;;;;;;;24.36;33.67;98088.78;1886855;91;21179;-85
2021/05/11 17:52:51;;;;;;;2.40;1.82;;;;;;;24.28;34.05;98092.59;1886736;90;21530;-86
2021/05/11 17:55:52;;;;;;;4.75;2.00;;;;;;;24.16;34.57;98095.66;1886838;90;21111;-87
2021/05/11 17:58:53;;;;;;;3.55;2.00;;;;;;;24.08;35.46;98098.39;1886968;91;21040;-87
2021/05/11 18:01:55;;;;;;;2.60;2.20;;;;;;;23.95;36.36;98096.36;1886679;90;21036;-86
2021/05/11 18:04:56;;;;;;;5.30;2.50;;;;;;;23.82;36.76;98104.50;1869511;91;21063;-86
2021/05/11 18:07:57;;;;;;;2.92;1.87;;;;;;;23.72;37.02;98089.09;1863537;91;21048;-85
2021/05/11 18:11:02;;;;;;;3.00;1.98;;;;;;;23.60;37.55;98085.98;1861868;91;21095;-85
2021/05/11 18:14:03;;;;;;;3.40;2.30;;;;;;;23.45;38.01;98087.65;1862085;92;21352;-83
2021/05/11 18:17:04;;;;;;;4.30;2.22;;;;;;;23.37;38.40;98092.78;1863190;92;21064;-86
2021/05/11 18:20:06;;;;;;;4.17;2.85;;;;;;;23.22;38.79;98092.33;1863438;92;21533;-84
2021/05/11 18:23:07;;;;;;;3.90;2.52;;;;;;;23.09;39.38;98092.95;1863445;91;21666;-83
2021/05/11 18:26:09;;;;;;;3.98;2.37;;;;;;;22.94;39.41;98102.63;1863576;92;21064;-83
2021/05/11 18:29:14;;;;;;;4.00;2.58;;;;;;;22.83;39.79;98098.91;1864110;91;21113;-85
2021/05/11 18:32:15;;;;;;;3.40;2.75;;;;;;;22.74;39.82;98114.69;1884417;90;21170;-83